createdAt,value
2022-11-15T00:00:45.525Z,17.99
2022-11-15T00:05:48.953Z,17.97
2022-11-15T00:10:52.362Z,17.95
2022-11-15T00:15:55.887Z,17.95
2022-11-15T00:20:59.326Z,17.92
2022-11-15T00:26:02.728Z,17.91
2022-11-15T00:31:06.139Z,17.90
2022-11-15T00:36:10.252Z,17.89
2022-11-15T00:41:13.680Z,17.87
2022-11-15T00:46:17.094Z,17.84
2022-11-15T00:51:20.502Z,17.84
2022-11-15T00:56:23.909Z,17.82
2022-11-15T01:01:27.348Z,17.82
2022-11-15T01:06:31.996Z,17.80
2022-11-15T01:11:35.498Z,17.78
2022-11-15T01:16:38.893Z,17.76
2022-11-15T01:21:42.571Z,17.75
2022-11-15T01:26:45.966Z,17.72
2022-11-15T01:31:49.381Z,17.72
2022-11-15T01:36:52.800Z,17.70
2022-11-15T01:41:56.236Z,17.69
2022-11-15T01:46:59.646Z,17.67
2022-11-15T01:52:03.138Z,17.65
2022-11-15T01:57:06.610Z,17.65
2022-11-15T02:02:10.053Z,17.67
2022-11-15T02:07:13.521Z,17.62
2022-11-15T02:12:17.052Z,17.60
2022-11-15T02:17:20.458Z,17.57
2022-11-15T02:22:23.852Z,17.57
2022-11-15T02:27:27.262Z,17.55
2022-11-15T02:32:30.733Z,17.50
2022-11-15T02:37:34.134Z,17.47
2022-11-15T02:42:55.340Z,17.44
2022-11-15T02:47:58.885Z,17.42
2022-11-15T02:53:02.312Z,17.42
2022-11-15T02:58:05.722Z,17.39
2022-11-15T03:03:09.111Z,17.38
2022-11-15T03:08:12.651Z,17.38
2022-11-15T03:13:16.112Z,17.36
2022-11-15T03:18:19.541Z,17.34
2022-11-15T03:23:22.997Z,17.33
2022-11-15T03:28:26.412Z,17.31
2022-11-15T03:33:30.180Z,17.27
2022-11-15T03:38:34.117Z,17.27
2022-11-15T03:43:37.702Z,17.25
2022-11-15T03:48:41.102Z,17.29
2022-11-15T03:53:44.533Z,17.26
2022-11-15T03:58:48.044Z,17.28
2022-11-15T04:03:51.522Z,17.24
2022-11-15T04:08:54.933Z,17.23
2022-11-15T04:13:58.344Z,17.21
2022-11-15T04:19:19.484Z,17.21
2022-11-15T04:24:22.902Z,17.16
2022-11-15T04:29:38.768Z,17.17
2022-11-15T04:34:42.160Z,17.15
2022-11-15T04:39:45.700Z,17.14
2022-11-15T04:44:49.100Z,17.12
2022-11-15T04:49:52.593Z,17.11
2022-11-15T04:54:56.000Z,17.09
2022-11-15T04:59:59.444Z,17.13
2022-11-15T05:05:02.889Z,17.12
2022-11-15T05:10:06.290Z,17.11
2022-11-15T05:15:09.753Z,17.07
2022-11-15T05:20:13.156Z,17.02
2022-11-15T05:25:16.633Z,17.00
2022-11-15T05:30:20.186Z,16.97
2022-11-15T05:35:23.588Z,16.96
2022-11-15T05:40:27.096Z,16.98
2022-11-15T05:45:30.615Z,17.00
2022-11-15T05:50:34.029Z,16.97
2022-11-15T05:55:37.460Z,16.95
2022-11-15T06:00:40.920Z,16.94
2022-11-15T06:05:44.474Z,16.94
2022-11-15T06:10:47.868Z,16.89
2022-11-15T06:15:51.276Z,16.92
2022-11-15T06:20:54.679Z,16.93
2022-11-15T06:25:58.112Z,16.91
2022-11-15T06:31:01.668Z,16.93
2022-11-15T06:36:05.094Z,16.95
2022-11-15T06:41:08.530Z,16.92
2022-11-15T06:46:11.953Z,16.85
2022-11-15T06:51:15.470Z,16.83
2022-11-15T06:56:19.019Z,16.80
2022-11-15T07:01:23.339Z,16.81
2022-11-15T07:06:26.855Z,16.14
2022-11-15T07:11:30.290Z,16.69
2022-11-15T07:16:35.712Z,16.84
2022-11-15T07:21:39.194Z,16.75
2022-11-15T07:26:42.625Z,16.72
2022-11-15T07:31:46.283Z,16.71
2022-11-15T07:36:49.680Z,16.74
2022-11-15T07:42:13.509Z,16.77
2022-11-15T07:47:17.054Z,16.78
2022-11-15T07:52:20.469Z,16.73
2022-11-15T07:57:23.964Z,16.71
2022-11-15T08:02:30.446Z,16.76
2022-11-15T08:07:34.310Z,16.78
2022-11-15T08:12:37.782Z,16.73
2022-11-15T08:17:41.266Z,16.72
2022-11-15T08:22:44.661Z,16.74
2022-11-15T08:27:48.079Z,16.55
2022-11-15T08:32:51.496Z,16.52
2022-11-15T08:37:55.605Z,16.54
2022-11-15T08:42:59.740Z,16.60
2022-11-15T08:48:03.168Z,16.53
2022-11-15T08:53:06.604Z,16.51
2022-11-15T08:58:10.085Z,16.55
2022-11-15T09:03:13.609Z,16.67
2022-11-15T09:08:46.180Z,16.45
2022-11-15T09:13:40.387Z,16.56
2022-11-15T09:18:43.816Z,16.54
2022-11-15T09:23:47.227Z,16.55
2022-11-15T09:28:50.645Z,16.34
2022-11-15T09:33:54.063Z,16.44
2022-11-15T09:38:57.465Z,16.71
2022-11-15T09:44:00.869Z,16.85
2022-11-15T09:49:04.287Z,16.89
2022-11-15T09:59:32.535Z,16.92
2022-11-15T10:04:35.960Z,16.93
2022-11-15T10:09:39.382Z,16.93
2022-11-15T10:14:42.872Z,15.66
2022-11-15T10:19:47.301Z,15.18
2022-11-15T10:24:50.773Z,15.41
2022-11-15T10:29:54.189Z,14.67
2022-11-15T10:34:57.702Z,15.38
2022-11-15T10:40:01.141Z,16.50
2022-11-15T10:45:05.111Z,16.33
2022-11-15T10:50:08.634Z,16.81
2022-11-15T10:55:12.082Z,16.81
2022-11-15T11:00:15.518Z,16.75
2022-11-15T11:05:18.921Z,16.73
2022-11-15T11:10:49.956Z,16.79
2022-11-15T11:15:45.746Z,16.82
2022-11-15T11:20:49.162Z,16.85
2022-11-15T11:25:52.593Z,16.91
2022-11-15T11:30:55.997Z,16.88
2022-11-15T11:35:59.407Z,16.94
2022-11-15T11:41:03.274Z,16.90
2022-11-15T11:46:06.771Z,16.82
2022-11-15T11:51:10.198Z,16.77
2022-11-15T11:56:13.696Z,16.73
2022-11-15T12:01:17.365Z,16.70
2022-11-15T12:06:20.885Z,16.72
2022-11-15T12:11:24.304Z,16.75
2022-11-15T12:16:27.895Z,16.79
2022-11-15T12:21:33.329Z,16.75
2022-11-15T12:26:36.761Z,16.68
2022-11-15T12:31:40.188Z,16.66
2022-11-15T12:36:43.828Z,16.63
2022-11-15T12:41:47.240Z,16.59
2022-11-15T12:46:50.725Z,16.57
2022-11-15T12:51:54.368Z,16.56
2022-11-15T12:56:57.794Z,16.53
2022-11-15T13:02:01.226Z,16.49
2022-11-15T13:07:05.113Z,16.49
2022-11-15T13:12:08.721Z,16.55
2022-11-15T13:17:12.165Z,16.54
2022-11-15T13:22:33.449Z,16.56
2022-11-15T13:27:36.869Z,16.55
2022-11-15T13:32:40.740Z,16.49
2022-11-15T13:37:44.274Z,16.52
2022-11-15T13:42:47.707Z,16.55
2022-11-15T13:47:51.218Z,16.54
2022-11-15T13:52:54.668Z,16.53
2022-11-15T13:57:58.469Z,16.51
2022-11-15T14:08:22.952Z,16.61
2022-11-15T14:13:26.429Z,16.58
2022-11-15T14:18:30.080Z,16.58
2022-11-15T14:23:33.840Z,16.57
2022-11-15T14:28:40.126Z,16.53
2022-11-15T14:33:43.550Z,16.48
2022-11-15T14:38:47.001Z,16.43
2022-11-15T14:43:50.437Z,16.39
2022-11-15T14:48:53.854Z,16.34
2022-11-15T14:53:57.308Z,16.38
2022-11-15T14:59:01.182Z,16.42
2022-11-15T15:04:04.610Z,16.43
2022-11-15T15:09:08.014Z,16.41
2022-11-15T15:14:11.413Z,16.40
2022-11-15T15:19:15.153Z,16.39
2022-11-15T15:24:18.583Z,16.45
2022-11-15T15:29:21.984Z,16.45
2022-11-15T15:34:25.422Z,16.42
2022-11-15T15:39:28.825Z,16.34
2022-11-15T15:44:32.305Z,16.39
2022-11-15T15:49:35.719Z,16.37
2022-11-15T15:54:39.120Z,16.35
2022-11-15T15:59:43.075Z,16.33
2022-11-15T16:04:46.460Z,16.27
2022-11-15T16:10:02.300Z,16.11
2022-11-15T16:15:05.847Z,16.14
2022-11-15T16:20:09.275Z,16.13
2022-11-15T16:25:12.673Z,16.11
2022-11-15T16:30:16.109Z,16.11
2022-11-15T16:35:20.831Z,16.19
2022-11-15T16:40:24.305Z,16.15
2022-11-15T16:45:29.316Z,16.14
2022-11-15T16:50:35.095Z,16.18
2022-11-15T16:55:38.523Z,16.28
2022-11-15T17:00:41.958Z,16.32
2022-11-15T17:05:45.466Z,16.35
2022-11-15T17:10:48.884Z,16.09
2022-11-15T17:15:52.292Z,16.30
2022-11-15T17:20:55.708Z,16.33
2022-11-15T17:26:12.077Z,16.40
2022-11-15T17:31:22.507Z,16.35
2022-11-15T17:36:25.991Z,16.28
2022-11-15T17:41:29.395Z,16.39
2022-11-15T17:46:33.576Z,16.43
2022-11-15T17:51:36.971Z,16.53
2022-11-15T17:56:40.402Z,16.33
2022-11-15T18:01:43.826Z,16.65
2022-11-15T18:06:47.322Z,16.69
2022-11-15T18:11:51.866Z,16.75
2022-11-15T18:16:55.285Z,16.80
2022-11-15T18:21:58.958Z,16.83
2022-11-15T18:27:02.390Z,16.98
2022-11-15T18:32:11.422Z,17.03
2022-11-15T18:37:14.911Z,17.09
2022-11-15T18:42:18.316Z,17.14
2022-11-15T18:47:21.728Z,17.23
2022-11-15T18:52:25.194Z,17.33
2022-11-15T18:57:28.710Z,17.37
2022-11-15T19:02:32.133Z,17.38
2022-11-15T19:07:37.213Z,17.31
2022-11-15T19:12:40.724Z,17.41
2022-11-15T19:17:44.191Z,17.53
2022-11-15T19:22:47.630Z,17.57
2022-11-15T19:27:51.153Z,17.63
2022-11-15T19:32:54.579Z,17.68
2022-11-15T19:37:57.967Z,17.71
2022-11-15T19:43:01.385Z,17.74
2022-11-15T19:48:04.819Z,17.70
2022-11-15T19:53:08.250Z,17.76
2022-11-15T19:58:11.723Z,17.78
2022-11-15T20:03:15.137Z,17.86
2022-11-15T20:08:18.600Z,17.90
2022-11-15T20:13:22.040Z,17.92
2022-11-15T20:18:25.445Z,17.95
2022-11-15T20:23:28.956Z,17.97
2022-11-15T20:28:32.711Z,17.98
2022-11-15T20:33:39.174Z,18.02
2022-11-15T20:38:43.383Z,18.03
2022-11-15T20:43:47.089Z,18.09
2022-11-15T20:48:50.502Z,18.10
2022-11-15T20:53:53.896Z,18.08
2022-11-15T20:58:57.731Z,18.07
2022-11-15T21:04:01.148Z,18.26
2022-11-15T21:09:22.180Z,18.37
2022-11-15T21:14:25.608Z,18.28
2022-11-15T21:19:35.570Z,18.27
2022-11-15T21:24:40.221Z,18.31
2022-11-15T21:29:45.726Z,18.29
2022-11-15T21:34:49.212Z,18.32
2022-11-15T21:39:52.606Z,18.34
2022-11-15T21:44:56.026Z,18.35
2022-11-15T21:49:59.481Z,18.38
2022-11-15T21:55:02.888Z,18.46
2022-11-15T22:00:24.063Z,18.46
2022-11-15T22:10:48.826Z,18.41
2022-11-15T22:15:53.666Z,18.47
2022-11-15T22:20:57.409Z,18.43
2022-11-15T22:26:01.023Z,18.43
2022-11-15T22:31:04.653Z,18.46
2022-11-15T22:36:08.263Z,18.45
2022-11-15T22:41:11.898Z,18.49
2022-11-15T22:46:15.517Z,18.55
2022-11-15T22:51:19.130Z,18.59
2022-11-15T22:56:22.674Z,18.66
2022-11-15T23:01:26.166Z,18.59
2022-11-15T23:06:29.671Z,18.61
2022-11-15T23:11:50.827Z,18.56
2022-11-15T23:16:54.446Z,18.51
2022-11-15T23:22:15.871Z,18.55
2022-11-15T23:27:20.755Z,18.55
2022-11-15T23:32:38.108Z,18.53
2022-11-15T23:37:41.611Z,18.51
2022-11-15T23:42:45.222Z,18.49
2022-11-15T23:47:48.853Z,18.49
2022-11-15T23:52:52.722Z,18.47
2022-11-15T23:57:56.351Z,18.48
